createdAt,value
2023-04-27T05:03:30.953Z,0.50
2023-04-27T05:04:31.926Z,0.50
2023-04-27T05:05:31.882Z,0.50
2023-04-27T05:06:31.917Z,0.50
2023-04-27T05:07:30.947Z,0.50
2023-04-27T05:08:32.000Z,0.50
2023-04-27T05:09:32.021Z,0.34
2023-04-27T05:10:32.018Z,0.34
2023-04-27T05:11:31.011Z,0.34
2023-04-27T05:12:32.058Z,0.34
2023-04-27T05:13:32.133Z,0.34
2023-04-27T05:14:32.182Z,0.34
2023-04-27T05:15:32.183Z,0.34
2023-04-27T05:16:32.300Z,0.34
2023-04-27T05:17:32.366Z,0.34
2023-04-27T05:18:31.453Z,0.34
2023-04-27T05:19:32.501Z,0.34
2023-04-27T05:20:31.519Z,0.34
2023-04-27T05:21:32.594Z,0.34
2023-04-27T05:22:32.656Z,0.34
2023-04-27T05:23:32.742Z,0.34
2023-04-27T05:24:32.774Z,0.34
2023-04-27T05:25:31.830Z,0.34
2023-04-27T05:26:32.889Z,0.34
2023-04-27T05:27:32.962Z,0.34
2023-04-27T05:28:33.031Z,0.34
2023-04-27T05:29:32.078Z,0.34
2023-04-27T05:30:32.145Z,0.34
2023-04-27T05:31:33.231Z,0.36
2023-04-27T05:32:32.264Z,0.43
2023-04-27T05:33:32.298Z,0.50
2023-04-27T05:34:32.360Z,0.51
2023-04-27T05:35:32.447Z,0.50
2023-04-27T05:36:33.490Z,0.50
2023-04-27T05:37:32.508Z,0.51
2023-04-27T05:38:32.560Z,0.53
2023-04-27T05:39:33.589Z,0.51
2023-04-27T05:40:32.620Z,0.57
2023-04-27T05:41:33.663Z,0.58
2023-04-27T05:42:32.674Z,0.57
2023-04-27T05:43:33.718Z,0.58
2023-04-27T05:44:32.724Z,0.60
2023-04-27T05:45:33.805Z,0.64
2023-04-27T05:46:32.709Z,0.67
2023-04-27T05:47:32.808Z,0.68
2023-04-27T05:48:33.721Z,0.68
2023-04-27T05:49:33.734Z,0.69
2023-04-27T05:50:32.750Z,0.52
2023-04-27T05:51:32.803Z,0.50
2023-04-27T05:52:34.976Z,0.52
2023-04-27T05:53:33.791Z,0.51
2023-04-27T05:54:33.796Z,0.50
2023-04-27T05:55:32.792Z,0.50
2023-04-27T05:56:32.771Z,0.52
2023-04-27T05:57:32.787Z,0.53
2023-04-27T05:58:33.798Z,0.53
2023-04-27T05:59:32.756Z,0.56
2023-04-27T06:00:33.736Z,0.50
2023-04-27T06:01:33.745Z,0.50
2023-04-27T06:02:32.872Z,0.51
2023-04-27T06:03:34.529Z,0.50
2023-04-27T06:04:33.774Z,0.52
2023-04-27T06:05:33.784Z,0.51
2023-04-27T06:06:32.695Z,0.50
2023-04-27T06:07:32.733Z,0.50
2023-04-27T06:08:32.710Z,0.51
2023-04-27T06:09:33.696Z,0.51
2023-04-27T06:10:33.678Z,0.50
2023-04-27T06:11:33.685Z,0.50
2023-04-27T06:12:33.708Z,0.50
2023-04-27T06:13:33.676Z,0.51
2023-04-27T06:14:32.658Z,0.50
2023-04-27T06:15:32.762Z,0.51
2023-04-27T06:16:33.721Z,0.51
2023-04-27T06:17:33.658Z,0.52
2023-04-27T06:18:32.635Z,0.52
2023-04-27T06:19:33.615Z,0.51
2023-04-27T06:20:33.610Z,0.52
2023-04-27T06:21:33.613Z,0.53
2023-04-27T06:22:33.610Z,0.51
2023-04-27T06:23:32.635Z,0.52
2023-04-27T06:24:32.586Z,0.53
2023-04-27T06:25:33.588Z,0.55
2023-04-27T06:26:32.605Z,0.53
2023-04-27T06:27:32.648Z,0.54
2023-04-27T06:28:32.689Z,0.53
2023-04-27T06:29:33.730Z,0.54
2023-04-27T06:30:32.817Z,0.54
2023-04-27T06:31:33.901Z,0.54
2023-04-27T06:32:33.955Z,0.56
2023-04-27T06:33:34.004Z,0.55
2023-04-27T06:34:34.064Z,0.56
2023-04-27T06:35:34.117Z,0.56
2023-04-27T06:36:33.147Z,0.56
2023-04-27T06:37:34.206Z,0.56
2023-04-27T06:38:34.245Z,0.58
2023-04-27T06:39:34.398Z,0.57
2023-04-27T06:40:34.328Z,0.57
2023-04-27T06:41:34.416Z,0.57
2023-04-27T06:42:34.473Z,0.59
2023-04-27T06:43:33.475Z,0.59
2023-04-27T06:44:34.526Z,0.58
2023-04-27T06:45:34.556Z,0.59
2023-04-27T06:46:34.689Z,0.60
2023-04-27T06:47:33.623Z,0.61
2023-04-27T06:48:34.667Z,0.59
2023-04-27T06:49:34.691Z,0.60
2023-04-27T06:50:33.733Z,0.61
2023-04-27T06:51:33.761Z,0.62
2023-04-27T06:52:34.804Z,0.61
2023-04-27T06:53:35.224Z,0.62
2023-04-27T06:54:33.883Z,0.63
2023-04-27T06:55:34.968Z,0.67
2023-04-27T06:56:35.018Z,0.65
2023-04-27T06:57:34.026Z,0.67
2023-04-27T06:58:35.077Z,0.71
2023-04-27T06:59:34.107Z,0.74
2023-04-27T07:00:34.116Z,0.78
2023-04-27T07:01:35.207Z,0.80
2023-04-27T07:02:34.206Z,0.82
2023-04-27T07:03:35.344Z,0.85
2023-04-27T07:04:35.151Z,0.89
2023-04-27T07:05:35.149Z,0.93
2023-04-27T07:06:35.186Z,0.93
2023-04-27T07:07:35.240Z,0.97
2023-04-27T07:08:34.283Z,0.99
2023-04-27T07:09:34.479Z,1.03
2023-04-27T07:10:34.593Z,1.08
2023-04-27T07:11:34.492Z,1.12
2023-04-27T07:12:35.528Z,1.14
2023-04-27T07:13:35.592Z,1.17
2023-04-27T07:14:35.622Z,1.17
2023-04-27T07:15:34.686Z,1.21
2023-04-27T07:16:35.829Z,1.24
2023-04-27T07:17:35.779Z,1.28
2023-04-27T07:18:35.902Z,1.32
2023-04-27T07:19:34.842Z,1.32
2023-04-27T07:20:35.865Z,1.33
2023-04-27T07:21:35.913Z,1.37
2023-04-27T07:22:35.951Z,1.41
2023-04-27T07:23:34.992Z,1.42
2023-04-27T07:24:36.013Z,1.45
2023-04-27T07:25:36.034Z,1.48
2023-04-27T07:26:36.054Z,1.51
2023-04-27T07:27:35.140Z,1.53
2023-04-27T07:28:36.093Z,1.57
2023-04-27T07:29:36.118Z,1.57
2023-04-27T07:30:35.127Z,1.63
2023-04-27T07:31:35.221Z,1.63
2023-04-27T07:32:35.276Z,1.66
2023-04-27T07:33:35.212Z,1.71
2023-04-27T07:34:49.098Z,1.76
2023-04-27T07:35:36.244Z,1.76
2023-04-27T07:36:35.208Z,1.77
2023-04-27T07:37:36.200Z,1.79
2023-04-27T07:38:35.219Z,1.83
2023-04-27T07:39:36.188Z,1.89
2023-04-27T07:40:36.209Z,1.93
2023-04-27T07:41:36.189Z,1.95
2023-04-27T07:42:36.186Z,2.00
2023-04-27T07:43:36.209Z,1.98
2023-04-27T07:44:35.152Z,2.06
2023-04-27T07:45:35.192Z,2.03
2023-04-27T07:46:35.143Z,2.03
2023-04-27T07:47:35.175Z,2.06
2023-04-27T07:48:36.253Z,2.14
2023-04-27T07:49:35.126Z,2.17
2023-04-27T07:50:35.130Z,2.20
2023-04-27T07:51:36.109Z,2.26
2023-04-27T07:52:36.113Z,2.02
2023-04-27T07:53:36.260Z,2.23
2023-04-27T07:54:35.099Z,2.10
2023-04-27T07:55:35.103Z,2.00
2023-04-27T07:56:36.166Z,2.08
2023-04-27T07:57:35.213Z,2.08
2023-04-27T07:58:36.288Z,2.07
2023-04-27T07:59:36.362Z,1.21
2023-04-27T08:00:35.410Z,1.16
2023-04-27T08:01:35.440Z,1.03
2023-04-27T08:02:36.692Z,0.91
2023-04-27T08:03:35.848Z,0.79
2023-04-27T08:04:36.856Z,0.76
2023-04-27T08:05:36.932Z,0.82
2023-04-27T08:06:35.954Z,0.73
2023-04-27T08:07:39.567Z,0.73
2023-04-27T08:08:36.507Z,0.73
2023-04-27T08:09:35.498Z,0.69
2023-04-27T08:10:36.501Z,0.67
2023-04-27T08:11:35.478Z,0.60
2023-04-27T08:12:36.468Z,0.71
2023-04-27T08:13:36.512Z,0.86
2023-04-27T08:14:36.459Z,0.87
2023-04-27T08:15:36.477Z,0.89
2023-04-27T08:16:36.492Z,0.89
2023-04-27T08:17:36.520Z,0.89
2023-04-27T08:18:36.430Z,0.91
2023-04-27T08:19:36.422Z,0.93
2023-04-27T08:20:35.404Z,0.97
2023-04-27T08:21:36.408Z,0.99
2023-04-27T08:22:36.401Z,1.03
2023-04-27T08:23:36.392Z,1.07
2023-04-27T08:24:36.442Z,1.07
2023-04-27T08:25:36.424Z,1.14
2023-04-27T08:26:35.440Z,1.20
2023-04-27T08:27:36.459Z,1.25
2023-04-27T08:28:36.467Z,1.26
2023-04-27T08:29:36.469Z,1.33
2023-04-27T08:30:36.487Z,1.38
2023-04-27T08:31:35.685Z,1.46
2023-04-27T08:32:35.654Z,1.50
2023-04-27T08:33:36.671Z,1.57
2023-04-27T08:34:36.698Z,1.59
2023-04-27T08:35:36.770Z,1.64
2023-04-27T08:36:35.783Z,1.65
2023-04-27T08:37:36.828Z,1.72
2023-04-27T08:38:36.880Z,1.78
2023-04-27T08:39:36.907Z,1.81
2023-04-27T08:40:36.947Z,1.87
2023-04-27T08:41:36.954Z,1.98
2023-04-27T08:42:36.013Z,2.05
2023-04-27T08:43:37.355Z,2.14
2023-04-27T08:44:37.099Z,2.09
2023-04-27T08:45:36.139Z,2.19
2023-04-27T08:46:37.193Z,2.22
2023-04-27T08:47:43.442Z,2.36
2023-04-27T08:48:37.258Z,2.37
2023-04-27T08:49:37.244Z,2.39
2023-04-27T08:50:37.185Z,2.43
2023-04-27T08:51:37.172Z,2.44
2023-04-27T08:52:37.198Z,2.58
2023-04-27T08:53:36.169Z,2.66
2023-04-27T08:54:37.168Z,2.69
2023-04-27T08:55:37.222Z,2.70
2023-04-27T08:56:36.149Z,2.74
2023-04-27T08:57:37.147Z,2.87
2023-04-27T08:58:37.122Z,2.91
2023-04-27T08:59:37.153Z,2.98
2023-04-27T09:00:36.117Z,3.00
2023-04-27T09:01:37.160Z,3.01
2023-04-27T09:02:37.246Z,3.07
2023-04-27T09:03:37.319Z,3.00
2023-04-27T09:04:36.383Z,2.99
2023-04-27T09:05:37.319Z,3.14
2023-04-27T09:06:36.450Z,3.11
2023-04-27T09:07:37.355Z,3.19
2023-04-27T09:08:37.407Z,3.20
2023-04-27T09:09:37.424Z,3.27
2023-04-27T09:10:37.456Z,3.25
2023-04-27T09:11:36.509Z,3.37
2023-04-27T09:12:37.530Z,3.48
2023-04-27T09:13:37.579Z,3.52
2023-04-27T09:14:36.639Z,3.59
2023-04-27T09:15:37.641Z,3.54
2023-04-27T09:16:37.719Z,3.63
2023-04-27T09:17:37.741Z,3.55
2023-04-27T09:18:36.724Z,3.61
2023-04-27T09:19:37.871Z,3.66
2023-04-27T09:20:37.781Z,3.71
2023-04-27T09:21:37.786Z,3.69
2023-04-27T09:22:37.804Z,3.73
2023-04-27T09:23:37.834Z,3.84
2023-04-27T09:24:36.897Z,3.84
2023-04-27T09:25:37.915Z,3.89
2023-04-27T09:26:36.970Z,4.05
2023-04-27T09:27:37.010Z,3.93
2023-04-27T09:28:38.076Z,4.00
2023-04-27T09:29:38.137Z,4.20
2023-04-27T09:30:38.172Z,4.18
2023-04-27T09:31:38.237Z,4.21
2023-04-27T09:32:37.231Z,4.20
2023-04-27T09:33:38.244Z,4.26
2023-04-27T09:34:38.281Z,4.28
2023-04-27T09:35:37.333Z,4.34
2023-04-27T09:36:38.344Z,4.27
2023-04-27T09:37:38.378Z,4.48
2023-04-27T09:38:37.458Z,4.42
2023-04-27T09:39:38.481Z,4.61
2023-04-27T09:40:38.502Z,4.54
2023-04-27T09:41:38.487Z,4.68
2023-04-27T09:42:37.497Z,4.58
2023-04-27T09:43:38.485Z,4.67
2023-04-27T09:44:38.575Z,4.74
2023-04-27T09:45:37.611Z,4.85
2023-04-27T09:46:37.561Z,4.75
2023-04-27T09:47:38.653Z,4.98
2023-04-27T09:48:38.666Z,4.82
2023-04-27T09:49:38.840Z,4.67
2023-04-27T09:50:38.628Z,4.71
2023-04-27T09:51:38.695Z,4.77
2023-04-27T09:52:38.736Z,4.72
2023-04-27T09:53:38.811Z,4.75
2023-04-27T09:54:37.891Z,4.76
2023-04-27T09:55:37.873Z,4.57
2023-04-27T09:56:38.887Z,4.69
2023-04-27T09:57:38.898Z,4.72
2023-04-27T09:58:38.916Z,4.76
2023-04-27T09:59:37.925Z,4.62
2023-04-27T10:00:38.927Z,4.69
2023-04-27T10:01:39.045Z,4.60
2023-04-27T10:02:52.207Z,4.72
2023-04-27T10:03:39.083Z,4.73
2023-04-27T10:04:39.147Z,4.67
2023-04-27T10:05:37.971Z,4.61
2023-04-27T10:06:38.954Z,4.73
2023-04-27T10:07:38.967Z,4.64
2023-04-27T10:08:38.955Z,4.61
2023-04-27T10:09:38.925Z,4.53
2023-04-27T10:10:37.926Z,4.54
2023-04-27T10:11:37.926Z,4.52
2023-04-27T10:12:38.907Z,4.44
2023-04-27T10:13:38.892Z,4.41
2023-04-27T10:14:37.889Z,4.45
2023-04-27T10:15:38.916Z,4.41
2023-04-27T10:16:37.954Z,4.38
2023-04-27T10:17:38.979Z,4.29
2023-04-27T10:18:38.991Z,4.32
2023-04-27T10:19:39.026Z,4.26
2023-04-27T10:20:39.071Z,4.28
2023-04-27T10:21:39.117Z,4.21
2023-04-27T10:22:39.420Z,4.22
2023-04-27T10:23:38.213Z,4.20
2023-04-27T10:24:39.242Z,4.18
2023-04-27T10:25:39.283Z,3.98
2023-04-27T10:26:39.990Z,4.11
2023-04-27T10:27:39.354Z,4.04
2023-04-27T10:28:39.400Z,4.07
2023-04-27T10:29:39.438Z,4.13
2023-04-27T10:30:39.688Z,3.98
2023-04-27T10:31:39.505Z,4.05
2023-04-27T10:32:38.635Z,4.00
2023-04-27T10:33:38.605Z,4.01
2023-04-27T10:34:39.624Z,3.99
2023-04-27T10:35:38.665Z,3.88
2023-04-27T10:36:39.717Z,3.93
2023-04-27T10:37:39.736Z,3.88
2023-04-27T10:38:39.805Z,4.00
2023-04-27T10:39:47.025Z,3.78
2023-04-27T10:40:39.823Z,3.80
2023-04-27T10:41:38.804Z,3.83
2023-04-27T10:42:39.792Z,3.86
2023-04-27T10:43:38.784Z,3.88
2023-04-27T10:44:39.818Z,3.98
2023-04-27T10:45:39.783Z,3.84
2023-04-27T10:46:39.817Z,3.93
2023-04-27T10:47:38.859Z,3.80
2023-04-27T10:48:38.750Z,3.90
2023-04-27T10:49:38.744Z,3.86
2023-04-27T10:50:38.745Z,3.81
2023-04-27T10:51:39.743Z,3.83
2023-04-27T10:52:38.747Z,3.72
2023-04-27T10:53:38.735Z,3.66
2023-04-27T10:54:39.736Z,3.76
2023-04-27T10:55:38.707Z,3.81
2023-04-27T10:56:39.688Z,3.75
2023-04-27T10:57:39.688Z,3.68
2023-04-27T10:59:38.704Z,3.71
2023-04-27T11:00:38.671Z,3.72
2023-04-27T11:01:39.705Z,3.74
2023-04-27T11:02:38.695Z,3.73
2023-04-27T11:03:39.941Z,3.65
2023-04-27T11:04:39.703Z,3.74
2023-04-27T11:05:39.651Z,3.68
2023-04-27T11:06:39.650Z,3.68
2023-04-27T11:07:39.644Z,3.62
2023-04-27T11:08:38.605Z,3.71
2023-04-27T11:09:39.640Z,3.57
2023-04-27T11:10:38.612Z,3.65
2023-04-27T11:11:39.644Z,3.60
2023-04-27T11:12:39.570Z,3.58
2023-04-27T11:13:38.605Z,3.60
2023-04-27T11:14:38.558Z,3.61
2023-04-27T11:15:39.582Z,3.54
2023-04-27T11:16:39.636Z,3.55
2023-04-27T11:17:39.571Z,3.58
2023-04-27T11:18:38.561Z,3.56
2023-04-27T11:19:38.550Z,3.59
2023-04-27T11:20:38.610Z,3.56
2023-04-27T11:21:39.647Z,3.54
2023-04-27T11:22:38.693Z,3.56
2023-04-27T11:23:38.786Z,3.60
2023-04-27T11:24:40.098Z,3.62
2023-04-27T11:25:38.867Z,3.53
2023-04-27T11:26:39.959Z,3.58
2023-04-27T11:27:40.004Z,3.53
2023-04-27T11:28:39.079Z,3.51
2023-04-27T11:29:40.100Z,3.61
2023-04-27T11:30:39.161Z,3.56
2023-04-27T11:31:39.242Z,3.64
2023-04-27T11:32:39.299Z,3.79
2023-04-27T11:33:40.325Z,3.90
2023-04-27T11:34:40.386Z,4.13
2023-04-27T11:35:39.465Z,4.25
2023-04-27T11:36:40.522Z,4.24
2023-04-27T11:37:40.564Z,4.53
2023-04-27T11:38:39.689Z,4.46
2023-04-27T11:39:39.701Z,4.45
2023-04-27T11:40:39.755Z,4.44
2023-04-27T11:41:40.813Z,4.50
2023-04-27T11:42:40.936Z,4.29
2023-04-27T11:43:40.956Z,4.48
2023-04-27T11:44:40.998Z,4.56
2023-04-27T11:45:40.074Z,4.56
2023-04-27T11:46:41.177Z,4.48
2023-04-27T11:47:41.203Z,4.40
2023-04-27T11:48:41.238Z,4.51
2023-04-27T11:49:40.296Z,4.40
2023-04-27T11:50:41.362Z,4.47
2023-04-27T11:51:41.429Z,4.47
2023-04-27T11:52:40.490Z,4.41
2023-04-27T11:53:40.618Z,4.42
2023-04-27T11:54:41.601Z,4.39
2023-04-27T11:55:41.686Z,4.40
2023-04-27T11:56:41.734Z,4.44
2023-04-27T11:57:41.811Z,4.31
2023-04-27T11:58:40.885Z,4.19
2023-04-27T11:59:40.916Z,4.43
2023-04-27T12:00:41.970Z,4.40
2023-04-27T12:01:42.044Z,4.36
2023-04-27T12:02:41.390Z,4.27
2023-04-27T12:03:41.262Z,4.24
2023-04-27T12:04:41.374Z,4.35
2023-04-27T12:05:42.223Z,4.26
2023-04-27T12:06:42.241Z,4.18
2023-04-27T12:07:42.278Z,4.28
2023-04-27T12:08:42.301Z,4.24
2023-04-27T12:09:41.342Z,4.20
2023-04-27T12:10:42.426Z,4.17
2023-04-27T12:11:41.423Z,4.08
2023-04-27T12:12:41.487Z,4.13
2023-04-27T12:13:42.524Z,4.17
2023-04-27T12:14:42.571Z,4.12
2023-04-27T12:15:41.588Z,4.04
2023-04-27T12:16:41.648Z,4.04
2023-04-27T12:17:41.704Z,4.02
2023-04-27T12:18:42.728Z,4.01
2023-04-27T12:19:42.739Z,4.07
2023-04-27T12:20:41.788Z,3.97
2023-04-27T12:21:42.849Z,4.06
2023-04-27T12:22:42.915Z,4.00
2023-04-27T12:23:42.974Z,3.94
2023-04-27T12:24:42.962Z,4.00
2023-04-27T12:25:42.003Z,3.96
2023-04-27T12:26:43.061Z,3.95
2023-04-27T12:27:43.101Z,3.88
2023-04-27T12:28:43.133Z,3.08
2023-04-27T12:29:42.159Z,1.95
2023-04-27T12:30:42.220Z,1.44
2023-04-27T12:31:43.273Z,1.12
2023-04-27T12:32:42.301Z,0.96
2023-04-27T12:33:43.321Z,0.90
2023-04-27T12:34:42.364Z,0.66
2023-04-27T12:35:43.865Z,0.51
2023-04-27T12:36:43.372Z,0.48
2023-04-27T12:37:43.406Z,0.48
2023-04-27T12:38:42.444Z,0.50
2023-04-27T12:39:42.506Z,0.49
2023-04-27T12:40:43.572Z,0.49
2023-04-27T12:41:42.628Z,0.50
2023-04-27T12:42:43.683Z,0.49
2023-04-27T12:43:42.690Z,0.51
2023-04-27T12:44:43.696Z,0.50
2023-04-27T12:45:43.734Z,0.51
2023-04-27T12:46:43.813Z,0.51
2023-04-27T12:47:58.676Z,0.56
2023-04-27T12:48:43.841Z,0.57
2023-04-27T12:49:42.773Z,0.60
2023-04-27T12:50:43.769Z,0.71
2023-04-27T12:51:42.760Z,0.85
2023-04-27T12:52:43.757Z,0.99
2023-04-27T12:53:43.759Z,1.03
2023-04-27T12:54:43.755Z,1.04
2023-04-27T12:55:42.750Z,1.11
2023-04-27T12:56:43.733Z,1.13
2023-04-27T12:57:43.719Z,1.20
2023-04-27T12:58:42.704Z,1.22
2023-04-27T12:59:42.713Z,1.31
2023-04-27T13:00:43.692Z,1.35
2023-04-27T13:01:43.734Z,1.47
2023-04-27T13:02:42.863Z,1.51
2023-04-27T13:03:43.938Z,1.55
2023-04-27T13:04:43.927Z,1.64
2023-04-27T13:05:43.899Z,1.90
2023-04-27T13:06:43.944Z,2.03
2023-04-27T13:07:42.998Z,2.12
2023-04-27T13:08:44.000Z,2.21
2023-04-27T13:09:44.056Z,2.26
2023-04-27T13:10:43.074Z,2.42
2023-04-27T13:11:44.088Z,2.46
2023-04-27T13:12:43.131Z,2.54
2023-04-27T13:13:44.162Z,2.62
2023-04-27T13:14:44.190Z,2.73
2023-04-27T13:15:43.331Z,2.63
2023-04-27T13:16:44.245Z,2.75
2023-04-27T13:17:44.021Z,2.75
2023-04-27T13:18:43.305Z,2.78
2023-04-27T13:19:44.307Z,2.85
2023-04-27T13:20:43.332Z,2.88
2023-04-27T13:21:43.346Z,2.91
2023-04-27T13:22:44.356Z,3.03
2023-04-27T13:23:43.398Z,3.08
2023-04-27T13:24:43.404Z,3.12
2023-04-27T13:25:44.428Z,3.16
2023-04-27T13:26:44.653Z,3.18
2023-04-27T13:27:43.426Z,3.17
2023-04-27T13:28:44.450Z,3.17
2023-04-27T13:29:44.470Z,3.24
2023-04-27T13:30:43.492Z,3.25
2023-04-27T13:31:43.523Z,3.23
2023-04-27T13:32:44.523Z,3.24
2023-04-27T13:33:43.478Z,3.21
2023-04-27T13:34:44.522Z,3.28
2023-04-27T13:35:44.492Z,3.29
2023-04-27T13:36:44.524Z,3.16
2023-04-27T13:37:44.538Z,3.23
2023-04-27T13:38:44.524Z,3.22
2023-04-27T13:39:44.528Z,3.19
2023-04-27T13:40:44.538Z,3.20
2023-04-27T13:41:43.548Z,3.11
2023-04-27T13:42:43.558Z,3.14
2023-04-27T13:43:43.596Z,3.15
2023-04-27T13:44:43.569Z,3.07
2023-04-27T13:45:43.579Z,3.04
2023-04-27T13:46:43.651Z,3.10
2023-04-27T13:47:44.616Z,3.01
2023-04-27T13:48:44.586Z,3.03
2023-04-27T13:49:44.605Z,3.05
2023-04-27T13:50:44.638Z,3.03
2023-04-27T13:51:43.622Z,3.04
2023-04-27T13:52:44.622Z,3.01
2023-04-27T13:53:44.676Z,3.03
2023-04-27T13:54:43.632Z,3.02
2023-04-27T13:55:44.640Z,2.98
2023-04-27T13:56:43.649Z,3.00
2023-04-27T13:57:43.651Z,2.97
2023-04-27T13:58:43.692Z,2.97
2023-04-27T13:59:43.648Z,2.97
2023-04-27T14:00:44.701Z,3.04
2023-04-27T14:01:43.803Z,2.93
2023-04-27T14:02:44.760Z,2.90
2023-04-27T14:03:44.071Z,3.00
2023-04-27T14:04:44.718Z,2.87
2023-04-27T14:05:43.671Z,2.94
2023-04-27T14:06:44.709Z,2.85
2023-04-27T14:07:44.680Z,2.89
2023-04-27T14:08:43.695Z,2.86
2023-04-27T14:09:44.690Z,2.80
2023-04-27T14:10:43.685Z,2.84
2023-04-27T14:11:55.766Z,2.81
2023-04-27T14:12:44.669Z,2.82
2023-04-27T14:13:44.684Z,2.83
2023-04-27T14:14:43.669Z,2.84
2023-04-27T14:15:43.649Z,2.85
2023-04-27T14:16:44.713Z,2.81
2023-04-27T14:17:43.675Z,2.84
2023-04-27T14:18:44.649Z,2.81
2023-04-27T14:19:43.628Z,2.81
2023-04-27T14:20:43.640Z,2.72
2023-04-27T14:21:43.619Z,2.76
2023-04-27T14:22:44.636Z,2.71
2023-04-27T14:23:43.598Z,2.72
2023-04-27T14:24:44.596Z,2.74
2023-04-27T14:25:43.576Z,2.74
2023-04-27T14:26:44.578Z,2.70
2023-04-27T14:27:44.582Z,2.71
2023-04-27T14:28:44.558Z,2.70
2023-04-27T14:29:44.558Z,2.73
2023-04-27T14:30:44.549Z,2.69
2023-04-27T14:31:44.563Z,2.69
2023-04-27T14:32:43.586Z,2.67
2023-04-27T14:33:43.524Z,2.69
2023-04-27T14:34:44.517Z,2.67
2023-04-27T14:35:44.514Z,2.67
2023-04-27T14:36:44.517Z,2.71
2023-04-27T14:37:44.514Z,2.67
2023-04-27T14:38:43.516Z,2.59
2023-04-27T14:39:45.268Z,2.73
2023-04-27T14:40:43.484Z,2.68
2023-04-27T14:41:44.476Z,2.57
2023-04-27T14:42:43.476Z,2.64
2023-04-27T14:43:43.454Z,2.67
2023-04-27T14:44:43.452Z,2.66
2023-04-27T14:45:51.529Z,2.57
2023-04-27T14:46:44.477Z,2.58
2023-04-27T14:47:44.462Z,2.59
2023-04-27T14:48:44.422Z,2.58
2023-04-27T14:49:44.428Z,2.61
2023-04-27T14:50:43.425Z,2.55
2023-04-27T14:51:43.758Z,2.57
2023-04-27T14:52:43.394Z,2.49
2023-04-27T14:53:43.389Z,2.56
2023-04-27T14:54:44.420Z,2.50
2023-04-27T14:55:44.380Z,2.52
2023-04-27T14:56:43.388Z,2.45
2023-04-27T14:57:43.359Z,2.53
2023-04-27T14:58:44.367Z,2.45
2023-04-27T14:59:44.362Z,2.44
2023-04-27T15:00:43.344Z,2.41
2023-04-27T15:01:44.359Z,2.43
2023-04-27T15:02:44.406Z,2.45
2023-04-27T15:03:44.523Z,2.42
2023-04-27T15:04:44.457Z,2.39
2023-04-27T15:05:43.308Z,2.34
2023-04-27T15:06:43.302Z,2.33
2023-04-27T15:07:44.308Z,2.33
2023-04-27T15:08:44.277Z,2.30
2023-04-27T15:09:43.275Z,2.27
2023-04-27T15:10:44.285Z,2.30
2023-04-27T15:11:43.256Z,2.29
2023-04-27T15:12:43.255Z,2.28
2023-04-27T15:13:43.233Z,2.25
2023-04-27T15:14:43.226Z,2.26
2023-04-27T15:15:43.307Z,2.28
2023-04-27T15:16:43.311Z,2.28
2023-04-27T15:17:44.216Z,2.26
2023-04-27T15:18:43.206Z,2.22
2023-04-27T15:19:44.187Z,2.24
2023-04-27T15:20:44.714Z,2.24
2023-04-27T15:21:43.185Z,2.22
2023-04-27T15:22:43.167Z,2.29
2023-04-27T15:23:44.227Z,2.23
2023-04-27T15:24:44.170Z,2.24
2023-04-27T15:25:43.165Z,2.19
2023-04-27T15:26:44.180Z,2.19
2023-04-27T15:27:43.144Z,2.18
2023-04-27T15:28:43.163Z,2.19
2023-04-27T15:29:43.134Z,2.17
